Procure no Apolo11
Meteógrafos Informações Meteorológicas em tempo real
Aeroporto de Congonhas
23-06-2024 00:58 BRT (UTC-3)

Temperatura atual: 21 graus 69 F    Umidade relativa: 52 %
Velocidade do vento: 04 nós 7 Km/h    Direção: 010 graus N
Ajuste do altímetro ..: 1018 HPA
Visibilidade: Ótima    Tempo presente: Céu Limpo

Observação
Data Hora BRTTempo°CUmidadePressãoVentoVisib.
22/06 - 23:58   Céu Limpo 20° 52% 1019 Norte/3 km/h OK
22/06 - 22:58   Céu Limpo 20° 52% 1019 Sul-sudoeste/5 km/h OK
22/06 - 21:57   Céu Limpo 20° 52% 1019 Norte/0 km/h OK
22/06 - 20:58   Céu Limpo 21° 46% 1019 Nordeste/3 km/h OK
22/06 - 19:58   Céu Limpo 21° 46% 1019 Nordeste/3 km/h OK
22/06 - 18:59   Céu Limpo 23° 38% 1019 /1 km/h OK
22/06 - 17:58   Céu Limpo 26° 32% 1019 Norte/14 km/h CAVO
22/06 - 16:57   Céu Limpo 26° 29% 1018 Norte/19 km/h OK
22/06 - 15:59   Céu Limpo 26° 29% 1018 Norte/19 km/h OK
22/06 - 13:58   Céu Limpo 27° 30% 1018 Norte/19 km/h CAVO
22/06 - 12:58   Céu Limpo 26° 32% 1019 Norte-noroeste/25 km/h CAVO
22/06 - 11:58   Céu Limpo 24° 38% 1021 Norte/16 km/h CAVO
22/06 - 11:00   Céu Limpo 24° 38% 1021 Norte/16 km/h CAVO
22/06 - 09:58   Céu Limpo 21° 49% 1022 Norte-nordeste/12 km/h CAVO
22/06 - 08:58   Céu Limpo 17° 63% 1021 Norte/14 km/h OK
22/06 - 06:58   Quase sem nuvens 16° 72% 1020 Nordeste/7 km/h 8000
22/06 - 04:58   Não Disponível 16° 77% 1020 /1 km/h 7000
22/06 - 03:59   Não Disponível 17° 72% 1020 /3 km/h 8000
22/06 - 02:57   Não Disponível 15° 87% 1021 Norte/0 km/h 7000
22/06 - 01:57   Não Disponível 16° 82% 1021 Sul/3 km/h 7000
22/06 - 00:59   Quase sem nuvens 16° 82% 1022 Sul-sudeste/5 km/h 7000
21/06 - 23:57   Quase sem nuvens 16° 82% 1022 Sul-sudeste/5 km/h 7000
21/06 - 22:57   Quase sem nuvens 17° 72% 1022 Sudeste/5 km/h 7000
21/06 - 21:57   Quase sem nuvens 19° 68% 1021 Sul-sudeste/9 km/h 9000

Termo de Uso  |   Links Úteis  |   Imprensa  |  Anuncie  |  Fale Conosco  |  Versão Celular  |   Política de Privacidade

Apolo11.com - Todos os direitos reservados - 2000 - 2024

"Se a idéia é boa, ela pode sobreviver à derrota. Se ela é mesmo boa, pode sobreviver até à vitória" - Stephen Benét -